Time;durP1;ratioP1;P1;durP2;ratioP2;P2;SDS_P1;SDS_P2;PMS_P1;PMS_P2;Temp;Humidity;BMP_temperature;BMP_pressure;BME280_temperature;BME280_humidity;BME280_pressure;Samples;Min_cycle;Max_cycle;Signal;HPM_P1;HPM_P2
2020/12/30 00:00:14;;;;;;;8.10;3.95;;;;;;;2.77;100.00;99632.06;5022099;28;20073;-78
2020/12/30 00:02:40;;;;;;;8.50;4.10;;;;;;;2.77;100.00;99631.19;5002666;28;20533;-77
2020/12/30 00:05:08;;;;;;;5.85;3.80;;;;;;;2.81;99.97;99625.84;4998111;28;20037;-77
2020/12/30 00:07:37;;;;;;;9.50;4.18;;;;;;;2.84;99.96;99622.25;5007056;28;20062;-78
2020/12/30 00:10:08;;;;;;;10.85;5.78;;;;;;;2.91;100.00;99622.91;5019741;28;20026;-77
2020/12/30 00:12:34;;;;;;;16.38;7.57;;;;;;;3.01;100.00;99638.25;5004868;28;20022;-77
2020/12/30 00:15:00;;;;;;;13.93;8.00;;;;;;;3.01;100.00;99637.38;5000352;28;20032;-79
2020/12/30 00:17:26;;;;;;;17.88;9.43;;;;;;;3.09;100.00;99635.38;4997919;28;20033;-77
2020/12/30 00:19:52;;;;;;;23.30;11.38;;;;;;;3.16;100.00;99638.63;5028600;28;20055;-77
2020/12/30 00:22:18;;;;;;;17.63;9.90;;;;;;;3.15;100.00;99637.78;5005638;28;20495;-76
2020/12/30 00:24:44;;;;;;;20.10;10.88;;;;;;;3.18;100.00;99629.00;5007130;28;20026;-76
2020/12/30 00:27:11;;;;;;;19.83;11.38;;;;;;;3.16;100.00;99641.22;5002563;28;20108;-77
2020/12/30 00:29:37;;;;;;;19.25;10.57;;;;;;;3.23;100.00;99646.22;5005641;28;20468;-77
2020/12/30 00:32:02;;;;;;;20.65;12.02;;;;;;;3.19;100.00;99652.44;4996623;28;20481;-77
2020/12/30 00:34:28;;;;;;;23.63;13.43;;;;;;;3.22;100.00;99649.75;4998118;28;20060;-77
2020/12/30 00:36:53;;;;;;;22.50;12.63;;;;;;;3.25;100.00;99644.38;5000445;28;20029;-77
2020/12/30 00:39:19;;;;;;;29.42;14.57;;;;;;;3.28;100.00;99651.28;4999888;28;20065;-78
2020/12/30 00:41:44;;;;;;;22.15;12.70;;;;;;;3.23;100.00;99645.38;5001416;28;20100;-77
2020/12/30 00:44:09;;;;;;;17.20;11.00;;;;;;;3.25;100.00;99648.75;5000691;28;20040;-77
2020/12/30 00:46:35;;;;;;;23.48;13.68;;;;;;;3.27;100.00;99644.38;5002052;28;20035;-78
2020/12/30 00:49:01;;;;;;;24.55;12.07;;;;;;;3.26;100.00;99650.47;5002970;28;20039;-77
2020/12/30 00:51:26;;;;;;;22.05;12.38;;;;;;;3.25;100.00;99644.38;5008028;28;20022;-78
2020/12/30 00:53:51;;;;;;;21.15;11.75;;;;;;;3.22;100.00;99654.09;5007657;28;20052;-78
2020/12/30 00:56:17;;;;;;;20.02;11.05;;;;;;;3.16;100.00;99649.91;4998664;28;20018;-78
2020/12/30 00:58:42;;;;;;;18.65;10.40;;;;;;;3.09;100.00;99653.66;5002451;28;20068;-77
2020/12/30 01:01:09;;;;;;;17.95;9.40;;;;;;;3.11;100.00;99651.81;5001413;28;20045;-76
2020/12/30 01:03:39;;;;;;;16.80;10.27;;;;;;;3.10;100.00;99655.34;5020969;28;20034;-76
2020/12/30 01:06:05;;;;;;;17.95;9.57;;;;;;;3.05;100.00;99652.88;4998858;28;20034;-76
2020/12/30 01:08:31;;;;;;;15.52;9.40;;;;;;;3.01;100.00;99659.13;5024167;28;20026;-77
2020/12/30 01:10:56;;;;;;;13.55;8.40;;;;;;;3.03;100.00;99661.69;5000195;28;20786;-76
2020/12/30 01:13:22;;;;;;;22.58;11.00;;;;;;;2.99;100.00;99660.91;4996977;28;20030;-76
2020/12/30 01:15:47;;;;;;;17.00;10.18;;;;;;;2.99;100.00;99675.72;4998658;28;20507;-76
2020/12/30 01:18:13;;;;;;;20.65;12.52;;;;;;;3.00;100.00;99673.06;4999459;28;20038;-76
2020/12/30 01:20:38;;;;;;;24.17;12.45;;;;;;;2.96;100.00;99670.59;5021582;28;20115;-76
2020/12/30 01:23:04;;;;;;;27.60;15.65;;;;;;;2.97;100.00;99678.41;5003291;28;20609;-76
2020/12/30 01:25:29;;;;;;;33.78;15.60;;;;;;;3.03;100.00;99679.94;4995628;28;20037;-76
2020/12/30 01:27:57;;;;;;;26.55;15.50;;;;;;;3.03;100.00;99677.34;5005072;28;20045;-76
2020/12/30 01:30:24;;;;;;;27.65;14.65;;;;;;;3.05;100.00;99678.13;4999841;28;20030;-77
2020/12/30 01:32:49;;;;;;;27.20;14.63;;;;;;;2.98;100.00;99674.88;5000367;28;20056;-77
2020/12/30 01:35:15;;;;;;;25.95;15.32;;;;;;;2.99;100.00;99676.56;4998289;28;20057;-77
2020/12/30 01:37:41;;;;;;;30.95;16.35;;;;;;;2.96;100.00;99679.31;4996818;28;20041;-78
2020/12/30 01:40:07;;;;;;;26.38;15.38;;;;;;;3.07;100.00;99679.81;5014210;28;20033;-77
2020/12/30 01:42:48;;;;;;;29.38;15.68;;;;;;;3.04;100.00;99686.88;5001721;28;20030;-77
2020/12/30 01:45:14;;;;;;;30.00;15.57;;;;;;;3.04;100.00;99694.72;5004603;28;20412;-76
2020/12/30 01:47:40;;;;;;;28.67;16.10;;;;;;;2.99;100.00;99694.00;5005615;28;20567;-77
2020/12/30 01:50:06;;;;;;;32.58;16.77;;;;;;;2.99;100.00;99696.59;5018928;28;20061;-77
2020/12/30 01:52:40;;;;;;;31.90;16.63;;;;;;;3.04;100.00;99699.94;5009066;28;20548;-80
2020/12/30 01:55:16;;;;;;;28.73;15.82;;;;;;;2.99;100.00;99702.69;4994087;28;20493;-78
2020/12/30 01:57:49;;;;;;;27.10;15.60;;;;;;;2.96;100.00;99694.09;4995870;28;20038;-79
2020/12/30 02:00:14;;;;;;;26.27;16.13;;;;;;;2.96;100.00;99689.75;5007213;28;20033;-76
2020/12/30 02:02:46;;;;;;;29.13;15.65;;;;;;;2.95;100.00;99700.22;4999312;28;20036;-79
2020/12/30 02:05:12;;;;;;;28.20;14.30;;;;;;;3.00;100.00;99703.53;4994676;28;20022;-78
2020/12/30 02:07:38;;;;;;;23.88;13.77;;;;;;;3.05;100.00;99715.53;5013800;28;20638;-78
2020/12/30 02:10:04;;;;;;;21.50;13.02;;;;;;;2.99;100.00;99707.91;5013533;28;20072;-79
2020/12/30 02:12:30;;;;;;;13.95;9.05;;;;;;;3.03;100.00;99703.44;5005477;28;20414;-77
2020/12/30 02:14:55;;;;;;;11.75;6.93;;;;;;;3.07;100.00;99705.91;5000208;28;20097;-78
2020/12/30 02:17:21;;;;;;;12.00;6.68;;;;;;;3.04;100.00;99712.97;5003681;28;20028;-77
2020/12/30 02:19:47;;;;;;;12.50;6.35;;;;;;;3.05;100.00;99712.91;5020260;28;20108;-78
2020/12/30 02:22:17;;;;;;;9.63;6.20;;;;;;;3.08;100.00;99719.81;5000562;28;20029;-76
2020/12/30 02:24:45;;;;;;;8.68;5.03;;;;;;;3.06;100.00;99714.66;5001805;28;20049;-77
2020/12/30 02:27:10;;;;;;;11.40;5.10;;;;;;;3.06;100.00;99727.72;5013642;28;20509;-76
2020/12/30 02:29:35;;;;;;;9.60;4.40;;;;;;;3.01;100.00;99727.00;4998462;28;20041;-76
2020/12/30 02:32:01;;;;;;;9.32;4.93;;;;;;;3.04;100.00;99723.41;5000155;28;20136;-76
2020/12/30 02:34:27;;;;;;;8.35;4.55;;;;;;;3.00;100.00;99727.03;4998978;28;20041;-77
2020/12/30 02:36:52;;;;;;;5.82;3.78;;;;;;;2.92;100.00;99731.66;4997630;28;20125;-76
2020/12/30 02:39:19;;;;;;;5.40;3.22;;;;;;;3.00;100.00;99729.63;4995014;28;20030;-76
2020/12/30 02:41:45;;;;;;;4.85;3.00;;;;;;;3.03;100.00;99727.78;5001580;28;20014;-76
2020/12/30 02:44:10;;;;;;;4.97;2.80;;;;;;;2.98;100.00;99721.88;5003716;28;20033;-77
2020/12/30 02:46:35;;;;;;;3.08;2.45;;;;;;;2.99;100.00;99726.16;5001205;28;20057;-76
2020/12/30 02:49:00;;;;;;;5.70;2.70;;;;;;;2.98;100.00;99734.06;5005703;28;20419;-76
2020/12/30 02:51:26;;;;;;;4.35;2.80;;;;;;;2.95;100.00;99732.38;5003118;28;20129;-76
2020/12/30 02:53:52;;;;;;;5.88;2.50;;;;;;;2.95;100.00;99742.81;5022346;28;20029;-77
2020/12/30 02:56:18;;;;;;;4.72;2.20;;;;;;;2.98;100.00;99734.06;5019476;28;20172;-76
2020/12/30 02:58:44;;;;;;;2.72;2.17;;;;;;;2.88;100.00;99743.06;5015401;28;20528;-76
2020/12/30 03:01:10;;;;;;;5.97;2.28;;;;;;;2.82;100.00;99733.69;5001576;28;20037;-76
2020/12/30 03:03:35;;;;;;;4.20;2.38;;;;;;;2.82;100.00;99736.28;5013297;28;20037;-76
2020/12/30 03:06:01;;;;;;;2.78;1.60;;;;;;;2.78;100.00;99738.13;4996650;28;20065;-76
2020/12/30 03:08:27;;;;;;;5.07;2.05;;;;;;;2.77;100.00;99733.81;5004562;28;20544;-76
2020/12/30 03:10:52;;;;;;;4.72;2.33;;;;;;;2.77;100.00;99735.56;4999055;28;20034;-76
2020/12/30 03:13:18;;;;;;;3.83;2.45;;;;;;;2.71;100.00;99744.44;5002658;28;20034;-75
2020/12/30 03:15:43;;;;;;;5.25;2.72;;;;;;;2.70;100.00;99734.88;4997165;28;20031;-76
2020/12/30 03:18:08;;;;;;;4.03;2.50;;;;;;;2.75;100.00;99745.19;5023165;28;20037;-77
2020/12/30 03:20:34;;;;;;;4.88;3.30;;;;;;;2.81;100.00;99743.28;5019795;28;20132;-76
2020/12/30 03:22:59;;;;;;;7.38;3.97;;;;;;;2.80;100.00;99740.69;4998534;28;20092;-77
2020/12/30 03:25:24;;;;;;;7.47;5.10;;;;;;;2.80;100.00;99741.53;4997439;28;20036;-76
2020/12/30 03:27:50;;;;;;;7.97;4.38;;;;;;;2.76;100.00;99739.06;5022844;28;20053;-76
2020/12/30 03:30:15;;;;;;;7.90;5.07;;;;;;;2.73;100.00;99732.19;4994520;28;20030;-76
2020/12/30 03:32:40;;;;;;;7.88;5.38;;;;;;;2.69;100.00;99741.00;5000185;28;20141;-75
2020/12/30 03:35:06;;;;;;;11.18;5.65;;;;;;;2.60;100.00;99742.13;5001088;28;20501;-76
2020/12/30 03:37:32;;;;;;;10.25;5.53;;;;;;;2.60;100.00;99739.50;5006235;28;20026;-76
2020/12/30 03:39:57;;;;;;;10.20;5.88;;;;;;;2.76;100.00;99749.50;5002426;28;20033;-75
2020/12/30 03:42:22;;;;;;;10.82;6.05;;;;;;;2.69;100.00;99748.84;5000061;28;20032;-75
2020/12/30 03:44:48;;;;;;;9.73;5.53;;;;;;;2.74;100.00;99756.53;5017420;28;20040;-75
2020/12/30 03:47:13;;;;;;;9.15;5.03;;;;;;;2.79;100.00;99755.50;5000696;28;20030;-75
2020/12/30 03:49:38;;;;;;;7.30;4.80;;;;;;;2.96;100.00;99756.72;5012245;28;20053;-76
2020/12/30 03:52:03;;;;;;;8.55;4.07;;;;;;;2.95;100.00;99755.88;5005351;28;20034;-76
2020/12/30 03:54:29;;;;;;;7.68;4.32;;;;;;;2.96;100.00;99756.72;5025706;28;20425;-76
2020/12/30 03:56:54;;;;;;;5.90;4.18;;;;;;;2.94;100.00;99756.78;5020723;28;20025;-76
2020/12/30 03:59:20;;;;;;;12.07;4.60;;;;;;;2.99;100.00;99760.09;5006530;28;20033;-76
2020/12/30 04:01:45;;;;;;;9.25;4.25;;;;;;;2.96;100.00;99765.44;4998345;28;20033;-76
2020/12/30 04:04:14;;;;;;;7.22;3.53;;;;;;;3.03;100.00;99766.09;5007265;28;20060;-75
2020/12/30 04:06:42;;;;;;;6.18;3.70;;;;;;;2.99;100.00;99770.56;5016368;28;20093;-76
2020/12/30 04:09:08;;;;;;;4.43;2.97;;;;;;;2.98;100.00;99773.22;5009179;28;20042;-76
2020/12/30 04:11:33;;;;;;;4.00;2.47;;;;;;;3.05;100.00;99766.91;5016106;28;20033;-76
2020/12/30 04:13:58;;;;;;;7.93;2.80;;;;;;;3.05;100.00;99769.50;4994813;28;20109;-77
2020/12/30 04:16:25;;;;;;;8.10;2.80;;;;;;;3.08;100.00;99767.66;5016615;28;20755;-76
2020/12/30 04:18:51;;;;;;;7.82;2.70;;;;;;;3.07;100.00;99760.75;4997125;28;20038;-75
2020/12/30 04:21:24;;;;;;;5.15;2.75;;;;;;;3.03;100.00;99759.13;5019315;28;20030;-76
2020/12/30 04:23:50;;;;;;;5.97;3.05;;;;;;;2.91;100.00;99751.66;5002564;28;20052;-75
2020/12/30 04:26:19;;;;;;;9.90;2.63;;;;;;;2.85;100.00;99757.91;5001793;28;20033;-75
2020/12/30 04:28:45;;;;;;;4.03;2.65;;;;;;;2.78;100.00;99758.16;5004676;28;20135;-75
2020/12/30 04:31:12;;;;;;;5.15;3.22;;;;;;;2.80;100.00;99759.81;5001619;28;20483;-75
2020/12/30 04:33:38;;;;;;;4.32;2.42;;;;;;;2.85;100.00;99765.75;5001642;28;20037;-76
2020/12/30 04:36:04;;;;;;;5.78;2.90;;;;;;;2.82;100.00;99765.84;5006086;28;20034;-76
2020/12/30 04:38:31;;;;;;;7.00;3.65;;;;;;;2.78;100.00;99765.97;5003516;28;20034;-76
2020/12/30 04:40:59;;;;;;;6.75;2.90;;;;;;;2.73;100.00;99766.13;5027289;28;20030;-76
2020/12/30 04:43:26;;;;;;;8.25;3.13;;;;;;;2.77;100.00;99752.09;5009422;28;20057;-76
2020/12/30 04:45:54;;;;;;;11.35;3.13;;;;;;;2.83;100.00;99770.16;5013681;28;20497;-76
2020/12/30 04:48:20;;;;;;;8.80;3.20;;;;;;;2.87;100.00;99768.31;5000553;28;20121;-76
2020/12/30 04:50:46;;;;;;;7.22;2.90;;;;;;;2.92;100.00;99770.78;5002574;28;20049;-76
2020/12/30 04:53:13;;;;;;;8.25;2.40;;;;;;;3.01;100.00;99779.22;5003705;28;20026;-76
2020/12/30 04:55:40;;;;;;;6.00;2.85;;;;;;;3.05;100.00;99772.13;5000961;28;20524;-76
2020/12/30 04:58:07;;;;;;;5.32;2.10;;;;;;;3.14;100.00;99781.44;5022431;28;20121;-75
2020/12/30 05:00:38;;;;;;;4.20;2.53;;;;;;;3.10;100.00;99781.50;5004239;28;20727;-75
2020/12/30 05:03:08;;;;;;;3.47;2.05;;;;;;;3.07;100.00;99781.63;5003858;28;20766;-75
2020/12/30 05:05:38;;;;;;;4.18;1.40;;;;;;;3.09;100.00;99778.97;5016504;28;20492;-76
2020/12/30 05:08:11;;;;;;;3.42;1.63;;;;;;;3.10;100.00;99783.28;4997622;28;20029;-75
2020/12/30 05:10:38;;;;;;;3.47;1.30;;;;;;;3.08;100.00;99779.88;4998980;28;20037;-75
2020/12/30 05:13:04;;;;;;;2.88;1.45;;;;;;;3.10;100.00;99781.50;4995426;28;20126;-75
2020/12/30 05:15:30;;;;;;;3.40;1.95;;;;;;;3.07;100.00;99784.22;4998995;28;20034;-75
2020/12/30 05:17:55;;;;;;;4.40;1.50;;;;;;;3.17;100.00;99784.81;4998399;28;20363;-75
2020/12/30 05:20:26;;;;;;;8.88;2.00;;;;;;;3.14;100.00;99771.00;5000430;28;20025;-75
2020/12/30 05:22:54;;;;;;;2.65;1.38;;;;;;;3.16;100.00;99771.78;4998167;28;20023;-76
2020/12/30 05:25:26;;;;;;;5.25;1.75;;;;;;;3.17;100.00;99768.28;4998693;28;20025;-77
2020/12/30 05:27:53;;;;;;;4.32;2.10;;;;;;;3.17;100.00;99776.97;5003618;28;20049;-76
2020/12/30 05:30:21;;;;;;;5.35;2.83;;;;;;;3.19;100.00;99777.78;4998549;28;20040;-76
2020/12/30 05:32:50;;;;;;;6.07;3.15;;;;;;;3.14;100.00;99779.66;5012850;28;21376;-76
2020/12/30 05:35:16;;;;;;;7.43;3.20;;;;;;;3.14;100.00;99779.66;5018199;28;20123;-76
2020/12/30 05:37:41;;;;;;;8.65;3.72;;;;;;;3.18;100.00;99788.28;4999051;28;20489;-77
2020/12/30 05:40:23;;;;;;;9.95;4.60;;;;;;;3.21;100.00;99780.31;4996426;28;20038;-77
2020/12/30 05:42:50;;;;;;;8.48;3.97;;;;;;;3.18;100.00;99783.91;5009684;28;20478;-75
2020/12/30 05:45:20;;;;;;;8.70;4.93;;;;;;;3.17;100.00;99789.19;5003213;28;20034;-76
2020/12/30 05:47:46;;;;;;;7.80;4.95;;;;;;;3.24;100.00;99790.69;4996794;28;20093;-76
2020/12/30 05:50:12;;;;;;;15.15;5.93;;;;;;;3.20;100.00;99797.75;5013975;28;20026;-75
2020/12/30 05:52:39;;;;;;;10.35;6.28;;;;;;;3.21;100.00;99798.59;4998990;28;20252;-75
2020/12/30 05:55:08;;;;;;;12.00;6.28;;;;;;;3.19;100.00;99803.88;5002749;28;20859;-75
2020/12/30 05:57:37;;;;;;;14.73;6.72;;;;;;;3.28;100.00;99800.13;5000863;28;20066;-76
2020/12/30 06:00:08;;;;;;;19.27;7.47;;;;;;;3.25;100.00;99797.63;5006315;28;20029;-76
2020/12/30 06:02:33;;;;;;;14.73;7.78;;;;;;;3.21;100.00;99799.44;5004926;28;20068;-76
2020/12/30 06:05:11;;;;;;;22.45;8.98;;;;;;;3.17;100.00;99810.91;4999263;28;20449;-75
2020/12/30 06:07:38;;;;;;;20.20;10.50;;;;;;;3.24;100.00;99808.97;4999832;28;20112;-75
2020/12/30 06:10:04;;;;;;;22.13;11.07;;;;;;;3.16;100.00;99811.78;5001265;28;20026;-76
2020/12/30 06:12:37;;;;;;;25.30;12.32;;;;;;;3.14;100.00;99820.59;5005613;28;20125;-77
2020/12/30 06:15:03;;;;;;;27.98;12.38;;;;;;;3.10;100.00;99820.66;5002573;28;20038;-75
2020/12/30 06:17:30;;;;;;;26.02;12.80;;;;;;;3.07;100.00;99810.34;5003647;28;20034;-77
2020/12/30 06:19:57;;;;;;;25.38;12.73;;;;;;;3.01;100.00;99827.91;5002868;28;20038;-77
2020/12/30 06:22:24;;;;;;;26.35;13.63;;;;;;;3.02;100.00;99833.13;5004568;28;20025;-77
2020/12/30 06:24:56;;;;;;;28.48;13.95;;;;;;;3.11;100.00;99831.97;5000647;28;20045;-78
2020/12/30 06:27:24;;;;;;;26.58;14.18;;;;;;;3.10;100.00;99836.34;5006686;28;20045;-78
2020/12/30 06:29:53;;;;;;;21.70;12.55;;;;;;;3.13;100.00;99837.16;5007463;28;20041;-78
2020/12/30 06:32:30;;;;;;;27.73;14.68;;;;;;;3.13;100.00;99843.25;5017121;28;20026;-78
2020/12/30 06:34:56;;;;;;;32.45;15.13;;;;;;;3.12;100.00;99838.94;4999884;28;20026;-78
2020/12/30 06:37:34;;;;;;;31.73;15.38;;;;;;;3.05;100.00;99843.44;4998829;28;20033;-78
2020/12/30 06:40:21;;;;;;;26.23;15.27;;;;;;;3.04;100.00;99852.19;5014175;28;20038;-78
2020/12/30 06:42:49;;;;;;;29.63;15.73;;;;;;;3.09;100.00;99849.44;5001245;28;20099;-78
2020/12/30 06:45:35;;;;;;;33.15;16.38;;;;;;;3.06;100.00;99868.69;4994687;28;20062;-77
2020/12/30 06:48:00;;;;;;;36.15;16.25;;;;;;;3.10;100.00;99875.50;5003440;28;20252;-78
2020/12/30 06:50:26;;;;;;;35.55;16.95;;;;;;;3.17;100.00;99870.97;5025700;28;20566;-78
2020/12/30 06:52:52;;;;;;;33.45;18.23;;;;;;;3.25;100.00;99863.75;5005686;28;20599;-78
2020/12/30 06:55:17;;;;;;;30.58;15.75;;;;;;;3.30;100.00;99861.00;5011448;28;20108;-78
2020/12/30 06:57:45;;;;;;;20.33;12.27;;;;;;;3.25;100.00;99882.03;5004077;28;20033;-77
2020/12/30 07:00:26;;;;;;;29.33;13.35;;;;;;;3.24;100.00;99882.94;5005791;28;20272;-78
2020/12/30 07:03:11;;;;;;;27.63;13.77;;;;;;;3.38;100.00;99893.84;5031974;28;20029;-78
2020/12/30 07:05:37;;;;;;;25.35;15.00;;;;;;;3.29;100.00;99885.41;5016097;28;20030;-78
2020/12/30 07:08:02;;;;;;;28.95;14.25;;;;;;;3.41;100.00;99900.72;5004433;28;20770;-75
2020/12/30 07:10:28;;;;;;;23.83;14.18;;;;;;;3.48;100.00;99897.03;5009303;28;20040;-77
2020/12/30 07:12:53;;;;;;;28.73;14.68;;;;;;;3.44;100.00;99905.84;5029379;28;20092;-77
2020/12/30 07:15:26;;;;;;;26.23;15.02;;;;;;;3.44;100.00;99916.31;5013338;28;20511;-78
2020/12/30 07:17:54;;;;;;;24.33;14.32;;;;;;;3.50;100.00;99916.09;5011790;28;20034;-77
2020/12/30 07:20:23;;;;;;;26.52;15.18;;;;;;;3.42;100.00;99905.06;5030841;28;20041;-77
2020/12/30 07:22:48;;;;;;;26.58;15.00;;;;;;;3.53;100.00;99912.56;5008922;28;20131;-78
2020/12/30 07:25:15;;;;;;;27.02;14.23;;;;;;;3.55;100.00;99914.22;5009362;28;20493;-77
2020/12/30 07:27:40;;;;;;;23.10;14.77;;;;;;;3.57;100.00;99916.81;5005462;28;20053;-77
2020/12/30 07:30:06;;;;;;;26.92;14.07;;;;;;;3.57;100.00;99922.03;5003110;28;20125;-78
2020/12/30 07:32:32;;;;;;;21.30;14.55;;;;;;;3.57;100.00;99917.66;5003850;28;20030;-76
2020/12/30 07:34:59;;;;;;;24.63;14.70;;;;;;;3.56;100.00;99922.91;5025494;28;20096;-78
2020/12/30 07:37:24;;;;;;;26.38;14.23;;;;;;;3.63;100.00;99919.22;5000305;28;20030;-79
2020/12/30 07:39:50;;;;;;;23.45;12.52;;;;;;;3.69;100.00;99926.88;5002441;28;20073;-77
2020/12/30 07:42:23;;;;;;;19.65;12.15;;;;;;;3.70;100.00;99931.19;5019875;28;20018;-76
2020/12/30 07:44:50;;;;;;;20.73;11.93;;;;;;;3.70;100.00;99935.56;4999071;28;20521;-76
2020/12/30 07:47:16;;;;;;;21.50;11.07;;;;;;;3.76;100.00;99940.59;5001132;28;20048;-76
2020/12/30 07:49:42;;;;;;;23.80;10.98;;;;;;;3.75;100.00;99933.66;5003948;28;20029;-77
2020/12/30 07:52:08;;;;;;;16.65;9.85;;;;;;;3.81;100.00;99944.75;5001888;28;20041;-77
2020/12/30 07:54:34;;;;;;;15.95;8.20;;;;;;;3.84;100.00;99941.22;5004439;28;20072;-77
2020/12/30 07:57:00;;;;;;;14.60;7.70;;;;;;;3.93;100.00;99948.78;5000944;28;20037;-78
2020/12/30 07:59:26;;;;;;;13.68;7.28;;;;;;;3.95;100.00;99946.09;4998746;28;20057;-77
2020/12/30 08:02:11;;;;;;;15.15;8.07;;;;;;;3.89;100.00;99947.16;5007514;28;20037;-78
2020/12/30 08:04:39;;;;;;;15.52;8.60;;;;;;;3.93;100.00;99950.53;5010905;28;20047;-77
2020/12/30 08:07:06;;;;;;;15.32;7.53;;;;;;;4.02;100.00;99950.25;5011077;28;20034;-78
2020/12/30 08:09:33;;;;;;;17.08;8.82;;;;;;;3.98;100.00;99946.88;5003758;28;20030;-77
2020/12/30 08:12:01;;;;;;;14.35;8.48;;;;;;;3.94;100.00;99955.72;4997646;28;20038;-77
2020/12/30 08:14:28;;;;;;;14.90;8.18;;;;;;;3.93;100.00;99966.22;5016051;28;20149;-77
2020/12/30 08:16:58;;;;;;;17.55;8.88;;;;;;;3.95;100.00;99962.66;5001543;28;20119;-78
2020/12/30 08:19:38;;;;;;;15.57;8.20;;;;;;;4.02;100.00;99974.66;5000197;28;20025;-78
2020/12/30 08:22:09;;;;;;;17.40;9.10;;;;;;;3.96;100.00;99977.44;5009939;28;20086;-77
2020/12/30 08:24:38;;;;;;;15.73;7.93;;;;;;;3.97;100.00;99975.69;5019924;28;20034;-78
2020/12/30 08:27:04;;;;;;;20.65;8.45;;;;;;;3.99;100.00;99984.34;5002812;28;20030;-78
2020/12/30 08:29:32;;;;;;;18.60;10.40;;;;;;;3.97;100.00;99986.16;5016650;28;20033;-78
2020/12/30 08:32:01;;;;;;;22.92;11.88;;;;;;;3.89;100.00;99989.84;5002804;28;20108;-77
2020/12/30 08:34:32;;;;;;;21.42;12.55;;;;;;;3.86;100.00;99989.91;5001586;28;20037;-77
2020/12/30 08:37:07;;;;;;;25.98;13.48;;;;;;;3.81;100.00;100001.41;5001041;28;20027;-78
2020/12/30 08:39:39;;;;;;;24.88;14.63;;;;;;;3.75;100.00;99999.84;5002053;28;20041;-78
2020/12/30 08:42:13;;;;;;;25.63;15.00;;;;;;;3.78;100.00;99999.78;5004966;28;20029;-77
2020/12/30 08:44:48;;;;;;;23.35;15.43;;;;;;;3.77;100.00;100008.53;5018853;28;20738;-78
2020/12/30 08:47:18;;;;;;;30.88;14.82;;;;;;;3.84;100.00;100019.63;5001812;28;20124;-77
2020/12/30 08:49:43;;;;;;;27.20;14.13;;;;;;;3.80;100.00;100033.69;4999088;28;20092;-78
2020/12/30 08:52:20;;;;;;;28.67;15.23;;;;;;;3.79;100.00;100040.69;5003280;28;20501;-78
2020/12/30 08:54:45;;;;;;;25.92;14.80;;;;;;;3.82;100.00;100037.13;5021299;28;20501;-78
2020/12/30 08:57:10;;;;;;;28.45;16.00;;;;;;;3.81;100.00;100041.47;5001231;28;20048;-78
2020/12/30 08:59:36;;;;;;;28.52;15.73;;;;;;;3.77;100.00;100039.88;4997288;28;20034;-78
2020/12/30 09:02:14;;;;;;;26.85;15.73;;;;;;;3.74;100.00;100045.19;5027319;28;20103;-79
2020/12/30 09:04:54;;;;;;;33.63;16.33;;;;;;;3.77;100.00;100045.13;5021391;28;20129;-78
2020/12/30 09:07:26;;;;;;;28.70;15.48;;;;;;;3.79;100.00;100042.44;5006053;28;20025;-79
2020/12/30 09:10:11;;;;;;;21.48;11.23;;;;;;;3.76;100.00;100043.38;5005559;28;20033;-78
2020/12/30 09:12:38;;;;;;;11.85;7.28;;;;;;;3.83;100.00;100042.31;5006639;28;20026;-78
2020/12/30 09:15:05;;;;;;;12.00;6.25;;;;;;;3.82;100.00;100044.97;5024712;28;20034;-78
2020/12/30 09:17:31;;;;;;;14.45;6.32;;;;;;;3.84;100.00;100038.78;5006131;28;20029;-79
2020/12/30 09:20:16;;;;;;;14.65;8.10;;;;;;;3.87;100.00;100037.84;5029965;28;20029;-78
2020/12/30 09:22:43;;;;;;;14.98;9.30;;;;;;;3.87;100.00;100036.09;5005276;28;20400;-79
2020/12/30 09:25:26;;;;;;;13.93;5.13;;;;;;;3.89;100.00;100049.97;5007779;28;20037;-78
2020/12/30 09:27:52;;;;;;;10.07;4.85;;;;;;;3.88;100.00;100044.78;5011361;28;20054;-78
2020/12/30 09:30:19;;;;;;;10.35;4.35;;;;;;;3.96;100.00;100047.16;5029026;28;20032;-74
2020/12/30 09:32:46;;;;;;;5.05;4.13;;;;;;;3.96;100.00;100045.41;4997650;28;20371;-74
2020/12/30 09:35:18;;;;;;;15.52;4.40;;;;;;;4.03;100.00;100048.72;5023136;28;20037;-75
2020/12/30 09:37:55;;;;;;;11.20;5.47;;;;;;;4.12;100.00;100051.06;5020236;28;20037;-75
2020/12/30 09:40:21;;;;;;;14.07;7.13;;;;;;;4.13;100.00;100058.84;5003903;28;20149;-75
2020/12/30 09:42:46;;;;;;;12.90;7.10;;;;;;;4.14;100.00;100067.53;4999185;28;20136;-75
2020/12/30 09:45:14;;;;;;;13.95;6.85;;;;;;;4.14;100.00;100068.41;4999848;28;20021;-75
2020/12/30 09:47:41;;;;;;;15.55;6.30;;;;;;;4.20;100.00;100067.34;4998720;28;20140;-76
2020/12/30 09:50:12;;;;;;;11.60;5.22;;;;;;;4.20;100.00;100076.97;4999475;28;20022;-75
2020/12/30 09:52:42;;;;;;;14.95;4.97;;;;;;;4.24;100.00;100079.44;4998059;28;20030;-76
2020/12/30 09:55:08;;;;;;;13.35;4.32;;;;;;;4.26;100.00;100076.75;5001855;28;20018;-75
2020/12/30 09:57:35;;;;;;;10.93;4.60;;;;;;;4.29;100.00;100069.69;5000212;28;20029;-76
2020/12/30 10:00:02;;;;;;;9.25;4.15;;;;;;;4.39;100.00;100075.50;4998839;28;20708;-76
2020/12/30 10:02:27;;;;;;;17.65;5.70;;;;;;;4.67;100.00;100076.34;5019029;28;20053;-75
2020/12/30 10:04:53;;;;;;;14.05;4.47;;;;;;;5.65;100.00;100078.19;4998629;28;20125;-76
2020/12/30 10:07:18;;;;;;;9.38;3.58;;;;;;;6.40;100.00;100079.78;4998028;28;20026;-76
2020/12/30 10:09:44;;;;;;;8.13;3.20;;;;;;;6.79;98.00;100077.34;5019532;28;20037;-75
2020/12/30 10:12:09;;;;;;;9.57;2.55;;;;;;;7.29;96.77;100076.16;4998775;28;20041;-75
2020/12/30 10:14:35;;;;;;;3.78;2.03;;;;;;;6.15;100.00;100077.25;5000125;28;20556;-75
2020/12/30 10:17:00;;;;;;;10.63;2.60;;;;;;;5.80;100.00;100083.81;4996045;28;20120;-73
2020/12/30 10:19:25;;;;;;;8.38;2.40;;;;;;;6.70;98.95;100075.09;4998570;28;21788;-74
2020/12/30 10:21:51;;;;;;;8.32;3.47;;;;;;;7.27;96.71;100076.19;5000939;28;20018;-75
2020/12/30 10:24:17;;;;;;;14.07;3.88;;;;;;;7.14;95.02;100077.66;5000947;28;20033;-75
2020/12/30 10:26:42;;;;;;;9.93;2.22;;;;;;;7.31;95.97;100074.28;4995499;28;20481;-76
2020/12/30 10:29:07;;;;;;;14.98;2.50;;;;;;;6.96;95.94;100074.88;4998262;28;20060;-75
2020/12/30 10:31:33;;;;;;;11.25;2.50;;;;;;;6.94;96.66;100073.25;4995062;28;20030;-75
2020/12/30 10:33:58;;;;;;;8.95;2.05;;;;;;;6.89;95.53;100083.94;5001527;28;20026;-75
2020/12/30 10:36:29;;;;;;;15.05;2.40;;;;;;;7.66;92.85;100072.75;4996303;28;20034;-74
2020/12/30 10:39:00;;;;;;;18.58;3.17;;;;;;;8.31;91.74;100071.50;5002000;28;20799;-75
2020/12/30 10:41:25;;;;;;;9.55;2.28;;;;;;;8.36;89.93;100073.94;4997487;28;20033;-75
2020/12/30 10:43:50;;;;;;;10.68;2.55;;;;;;;8.63;89.53;100069.97;5007987;28;20085;-75
2020/12/30 10:46:17;;;;;;;17.92;2.53;;;;;;;8.61;87.79;100076.28;4999987;28;20034;-75
2020/12/30 10:48:47;;;;;;;13.48;2.05;;;;;;;8.56;88.64;100077.34;4998936;28;20100;-75
2020/12/30 10:51:17;;;;;;;8.07;2.42;;;;;;;8.39;88.65;100087.00;4993097;28;20128;-75
2020/12/30 10:53:43;;;;;;;13.75;3.03;;;;;;;9.25;87.16;100083.63;4995857;28;20026;-75
2020/12/30 10:56:10;;;;;;;13.23;2.85;;;;;;;8.87;86.32;100080.25;4998976;28;20053;-75
2020/12/30 10:58:36;;;;;;;6.30;2.13;;;;;;;9.32;86.57;100075.31;4996328;28;20037;-75
2020/12/30 11:01:06;;;;;;;6.03;1.80;;;;;;;8.61;88.76;100073.63;4995270;28;20030;-75
2020/12/30 11:03:31;;;;;;;10.65;2.60;;;;;;;7.69;92.38;100076.09;4994300;28;20023;-75
2020/12/30 11:05:59;;;;;;;9.52;1.60;;;;;;;7.11;92.72;100088.28;4991679;28;20095;-74
2020/12/30 11:08:26;;;;;;;9.18;2.00;;;;;;;7.04;93.74;100087.69;4993761;28;20033;-74
2020/12/30 11:10:51;;;;;;;6.53;1.88;;;;;;;6.85;95.81;100090.22;4993619;28;20032;-75
2020/12/30 11:13:16;;;;;;;5.45;1.90;;;;;;;6.34;96.01;100091.38;4996938;28;20018;-74
2020/12/30 11:15:41;;;;;;;9.07;1.60;;;;;;;6.29;95.55;100090.72;4996394;28;20109;-74
2020/12/30 11:18:07;;;;;;;3.72;1.20;;;;;;;6.29;93.89;100089.88;4998821;28;20079;-73
2020/12/30 11:20:32;;;;;;;7.88;2.92;;;;;;;6.32;93.53;100098.44;4993952;28;20095;-75
2020/12/30 11:22:57;;;;;;;4.20;1.05;;;;;;;6.22;93.43;100103.22;4998339;28;20038;-74
2020/12/30 11:25:23;;;;;;;2.55;0.93;;;;;;;6.23;91.61;100097.06;4995573;28;20037;-77